createdAt,value
2018-12-31T00:00:29.791Z,6.13
2018-12-31T00:02:56.485Z,5.77
2018-12-31T00:05:23.326Z,5.60
2018-12-31T00:07:50.072Z,6.20
2018-12-31T00:10:16.826Z,5.40
2018-12-31T00:12:43.804Z,5.90
2018-12-31T00:15:10.499Z,9.60
2018-12-31T00:17:37.355Z,6.37
2018-12-31T00:20:04.444Z,6.80
2018-12-31T00:22:31.644Z,8.00
2018-12-31T00:24:58.687Z,8.00
2018-12-31T00:27:25.431Z,8.37
2018-12-31T00:29:52.163Z,13.00
2018-12-31T00:32:19.704Z,8.10
2018-12-31T00:34:46.462Z,8.33
2018-12-31T00:37:13.188Z,7.17
2018-12-31T00:39:39.949Z,6.80
2018-12-31T00:42:06.686Z,9.63
2018-12-31T00:44:33.741Z,8.83
2018-12-31T00:47:00.524Z,13.93
2018-12-31T00:49:29.424Z,10.70
2018-12-31T00:51:56.152Z,18.20
2018-12-31T00:54:23.301Z,23.83
2018-12-31T00:56:52.281Z,14.83
2018-12-31T00:59:19.142Z,11.47
2018-12-31T01:01:45.913Z,18.07
2018-12-31T01:04:12.679Z,15.20
2018-12-31T01:06:39.388Z,10.13
2018-12-31T01:09:06.437Z,10.20
2018-12-31T01:11:33.269Z,8.43
2018-12-31T01:14:00.292Z,10.70
2018-12-31T01:16:27.026Z,11.13
2018-12-31T01:18:53.754Z,9.67
2018-12-31T01:21:20.519Z,9.53
2018-12-31T01:23:47.279Z,10.70
2018-12-31T01:26:14.426Z,8.70
2018-12-31T01:28:43.755Z,7.33
2018-12-31T01:31:10.505Z,6.77
2018-12-31T01:33:39.254Z,6.90
2018-12-31T01:36:05.968Z,13.30
2018-12-31T01:38:32.720Z,8.00
2018-12-31T01:40:59.663Z,7.57
2018-12-31T01:43:26.360Z,8.30
2018-12-31T01:45:53.072Z,8.67
2018-12-31T01:48:19.805Z,8.97
2018-12-31T01:50:47.283Z,8.47
2018-12-31T01:53:13.999Z,10.03
2018-12-31T01:55:40.703Z,8.00
2018-12-31T01:58:07.452Z,8.30
2018-12-31T02:00:34.197Z,7.10
2018-12-31T02:03:01.525Z,11.10
2018-12-31T02:05:28.231Z,11.87
2018-12-31T02:07:55.031Z,8.17
2018-12-31T02:10:22.015Z,11.03
2018-12-31T02:12:48.734Z,10.77
2018-12-31T02:15:15.438Z,11.80
2018-12-31T02:17:42.530Z,11.10
2018-12-31T02:20:09.709Z,12.00
2018-12-31T02:22:36.434Z,19.80
2018-12-31T02:25:03.127Z,15.03
2018-12-31T02:27:30.294Z,14.23
2018-12-31T02:29:57.004Z,26.00
2018-12-31T02:32:23.725Z,10.40
2018-12-31T02:34:52.319Z,9.27
2018-12-31T02:37:21.978Z,10.60
2018-12-31T02:39:48.678Z,10.20
2018-12-31T02:42:15.362Z,10.20
2018-12-31T02:44:42.454Z,12.17
2018-12-31T02:47:09.512Z,9.47
2018-12-31T02:49:36.224Z,9.87
2018-12-31T02:52:03.160Z,9.00
2018-12-31T02:54:29.871Z,9.93
2018-12-31T02:56:56.555Z,9.30
2018-12-31T02:59:23.584Z,12.27
2018-12-31T03:01:50.307Z,9.80
2018-12-31T03:04:16.984Z,9.50
2018-12-31T03:06:43.891Z,10.63
2018-12-31T03:09:10.595Z,9.20
2018-12-31T03:11:37.649Z,8.03
2018-12-31T03:14:06.824Z,8.67
2018-12-31T03:16:33.530Z,8.03
2018-12-31T03:19:00.260Z,9.40
2018-12-31T03:21:26.995Z,11.00
2018-12-31T03:23:53.738Z,10.23
2018-12-31T03:26:20.505Z,11.07
2018-12-31T03:28:47.657Z,10.77
2018-12-31T03:31:14.371Z,10.47
2018-12-31T03:33:42.799Z,9.43
2018-12-31T03:36:09.505Z,10.13
2018-12-31T03:38:36.180Z,11.00
2018-12-31T03:41:03.144Z,10.63
2018-12-31T03:43:29.830Z,20.37
2018-12-31T03:45:56.525Z,11.47
2018-12-31T03:48:23.246Z,9.77
2018-12-31T03:50:49.987Z,11.50
2018-12-31T03:53:17.171Z,11.60
2018-12-31T03:55:43.858Z,13.10
2018-12-31T03:58:10.561Z,11.73
2018-12-31T04:00:37.385Z,18.20
2018-12-31T04:03:04.073Z,18.13
2018-12-31T04:05:30.805Z,20.50
2018-12-31T04:07:57.503Z,30.60
2018-12-31T04:10:24.197Z,12.73
2018-12-31T04:12:50.907Z,14.77
2018-12-31T04:15:19.556Z,17.20
2018-12-31T04:17:46.235Z,13.97
2018-12-31T04:20:12.944Z,11.30
2018-12-31T04:22:42.177Z,11.13
2018-12-31T04:25:08.884Z,11.90
2018-12-31T04:27:35.565Z,10.47
2018-12-31T04:30:02.264Z,12.53
2018-12-31T04:32:28.992Z,18.40
2018-12-31T04:34:56.090Z,11.50
2018-12-31T04:37:22.828Z,13.97
2018-12-31T04:39:49.514Z,16.97
2018-12-31T04:42:16.234Z,15.77
2018-12-31T04:44:42.925Z,10.00
2018-12-31T04:47:09.656Z,12.27
2018-12-31T04:49:36.344Z,14.93
2018-12-31T04:52:03.095Z,10.27
2018-12-31T04:54:29.871Z,17.70
2018-12-31T04:56:56.670Z,11.67
2018-12-31T04:59:23.642Z,14.90
2018-12-31T05:01:50.332Z,8.80
2018-12-31T05:04:17.022Z,10.23
2018-12-31T05:06:43.748Z,9.20
2018-12-31T05:09:10.437Z,8.60
2018-12-31T05:11:37.158Z,11.03
2018-12-31T05:14:03.830Z,6.70
2018-12-31T05:16:30.548Z,12.97
2018-12-31T05:18:57.256Z,15.43
2018-12-31T05:21:24.434Z,13.20
2018-12-31T05:23:53.037Z,12.00
2018-12-31T05:26:20.130Z,16.53
2018-12-31T05:28:46.860Z,10.47
2018-12-31T05:31:13.540Z,17.60
2018-12-31T05:33:40.251Z,10.97
2018-12-31T05:36:06.954Z,13.20
2018-12-31T05:38:33.670Z,11.00
2018-12-31T05:41:00.375Z,14.73
2018-12-31T05:43:27.116Z,14.83
2018-12-31T05:45:53.803Z,10.30
2018-12-31T05:48:20.501Z,12.53
2018-12-31T05:50:47.297Z,13.60
2018-12-31T05:53:14.712Z,10.40
2018-12-31T05:55:42.931Z,12.80
2018-12-31T05:58:09.629Z,13.47
2018-12-31T06:00:36.643Z,12.50
2018-12-31T06:03:03.713Z,12.87
2018-12-31T06:05:30.419Z,8.83
2018-12-31T06:07:57.108Z,6.77
2018-12-31T06:10:23.836Z,6.70
2018-12-31T06:12:50.632Z,14.00
2018-12-31T06:15:17.352Z,12.17
2018-12-31T06:17:44.051Z,11.10
2018-12-31T06:20:10.763Z,10.50
2018-12-31T06:22:37.445Z,12.50
2018-12-31T06:25:04.122Z,11.90
2018-12-31T06:27:30.836Z,16.37
2018-12-31T06:29:57.541Z,14.03
2018-12-31T06:32:24.259Z,10.43
2018-12-31T06:34:50.986Z,8.40
2018-12-31T06:37:19.104Z,9.63
2018-12-31T06:39:45.785Z,10.10
2018-12-31T06:42:12.542Z,10.73
2018-12-31T06:44:39.359Z,7.37
2018-12-31T06:47:06.050Z,11.23
2018-12-31T06:49:32.917Z,14.23
2018-12-31T06:51:59.590Z,12.40
2018-12-31T06:54:28.913Z,10.03
2018-12-31T06:56:56.082Z,9.37
2018-12-31T06:59:22.812Z,16.90
2018-12-31T07:01:51.431Z,11.30
2018-12-31T07:04:18.101Z,9.90
2018-12-31T07:06:44.792Z,6.90
2018-12-31T07:09:11.836Z,10.97
2018-12-31T07:11:38.562Z,7.73
2018-12-31T07:14:05.265Z,7.87
2018-12-31T07:16:33.901Z,8.30
2018-12-31T07:19:00.619Z,7.23
2018-12-31T07:21:27.436Z,7.07
2018-12-31T07:23:54.156Z,7.60
2018-12-31T07:26:22.049Z,5.83
2018-12-31T07:28:51.526Z,6.00
2018-12-31T07:31:18.197Z,5.70
2018-12-31T07:33:44.916Z,5.73
2018-12-31T07:36:11.630Z,6.37
2018-12-31T07:38:38.317Z,5.80
2018-12-31T07:41:05.163Z,5.60
2018-12-31T07:43:32.015Z,6.57
2018-12-31T07:45:58.709Z,7.20
2018-12-31T07:48:25.450Z,6.90
2018-12-31T07:50:52.266Z,6.93
2018-12-31T07:53:18.982Z,7.43
2018-12-31T07:55:45.654Z,9.43
2018-12-31T07:58:12.874Z,9.53
2018-12-31T08:00:39.560Z,10.27
2018-12-31T08:03:08.796Z,10.00
2018-12-31T08:05:37.578Z,9.10
2018-12-31T08:08:05.374Z,10.77
2018-12-31T08:10:32.113Z,12.97
2018-12-31T08:12:58.815Z,11.33
2018-12-31T08:15:25.536Z,9.23
2018-12-31T08:17:55.382Z,6.43
2018-12-31T08:20:22.149Z,10.63
2018-12-31T08:22:48.881Z,9.77
2018-12-31T08:25:15.570Z,14.83
2018-12-31T08:27:42.290Z,9.53
2018-12-31T08:30:09.092Z,11.40
2018-12-31T08:32:35.781Z,9.97
2018-12-31T08:35:02.914Z,13.33
2018-12-31T08:37:31.037Z,12.77
2018-12-31T08:39:57.810Z,16.60
2018-12-31T08:42:24.498Z,12.73
2018-12-31T08:44:53.484Z,13.10
2018-12-31T08:47:20.168Z,14.03
2018-12-31T08:49:46.902Z,17.57
2018-12-31T08:52:13.624Z,17.13
2018-12-31T08:54:42.442Z,16.47
2018-12-31T08:57:09.237Z,18.27
2018-12-31T08:59:36.762Z,14.13
2018-12-31T09:02:03.475Z,13.37
2018-12-31T09:04:30.170Z,11.83
2018-12-31T09:06:56.877Z,10.80
2018-12-31T09:09:25.049Z,13.17
2018-12-31T09:11:51.709Z,7.53
2018-12-31T09:14:21.214Z,7.77
2018-12-31T09:16:47.908Z,6.53
2018-12-31T09:19:14.638Z,6.47
2018-12-31T09:21:41.331Z,6.80
2018-12-31T09:24:08.091Z,9.33
2018-12-31T09:26:34.756Z,11.57
2018-12-31T09:29:01.429Z,12.27
2018-12-31T09:31:28.187Z,10.63
2018-12-31T09:33:55.928Z,10.80
2018-12-31T09:36:23.026Z,8.33
2018-12-31T09:38:49.732Z,11.10
2018-12-31T09:41:16.905Z,9.13
2018-12-31T09:43:43.672Z,12.20
2018-12-31T09:46:10.499Z,7.43
2018-12-31T09:48:39.056Z,8.13
2018-12-31T09:51:05.992Z,8.30
2018-12-31T09:53:32.807Z,8.40
2018-12-31T09:55:59.561Z,7.97
2018-12-31T09:58:26.332Z,7.57
2018-12-31T10:00:53.369Z,6.50
2018-12-31T10:03:20.430Z,8.20
2018-12-31T10:05:47.240Z,8.37
2018-12-31T10:08:13.982Z,7.17
2018-12-31T10:10:40.737Z,10.23
2018-12-31T10:13:07.426Z,8.30
2018-12-31T10:15:34.129Z,10.37
2018-12-31T10:18:00.950Z,8.53
2018-12-31T10:20:27.793Z,9.80
2018-12-31T10:22:54.773Z,11.80
2018-12-31T10:25:21.560Z,11.20
2018-12-31T10:27:48.299Z,8.83
2018-12-31T10:30:15.192Z,8.97
2018-12-31T10:32:41.857Z,11.07
2018-12-31T10:35:08.611Z,8.20
2018-12-31T10:37:35.354Z,6.90
2018-12-31T10:40:02.118Z,8.60
2018-12-31T10:42:28.859Z,12.83
2018-12-31T10:44:55.572Z,15.10
2018-12-31T10:47:22.332Z,11.43
2018-12-31T10:49:49.091Z,9.40
2018-12-31T10:52:15.875Z,16.03
2018-12-31T10:54:42.614Z,11.57
2018-12-31T10:57:09.282Z,19.87
2018-12-31T10:59:35.992Z,16.87
2018-12-31T11:02:02.860Z,14.93
2018-12-31T11:04:29.580Z,17.17
2018-12-31T11:06:56.297Z,9.57
2018-12-31T11:09:23.115Z,11.90
2018-12-31T11:11:50.027Z,10.27
2018-12-31T11:14:16.777Z,9.60
2018-12-31T11:16:43.475Z,11.17
2018-12-31T11:19:10.222Z,13.27
2018-12-31T11:21:37.191Z,9.57
2018-12-31T11:24:03.993Z,9.40
2018-12-31T11:26:30.994Z,27.27
2018-12-31T11:28:57.913Z,14.53
2018-12-31T11:31:30.287Z,13.70
2018-12-31T11:33:53.274Z,13.20
2018-12-31T11:36:20.066Z,10.67
2018-12-31T11:38:47.007Z,10.47
2018-12-31T11:41:15.445Z,15.00
2018-12-31T11:43:42.193Z,11.60
2018-12-31T11:46:08.957Z,11.70
2018-12-31T11:48:35.695Z,14.00
2018-12-31T11:51:02.998Z,14.53
2018-12-31T11:53:29.870Z,9.70
2018-12-31T11:55:56.834Z,13.10
2018-12-31T11:58:23.546Z,12.60
2018-12-31T12:00:50.598Z,12.33
2018-12-31T12:03:17.471Z,9.93
2018-12-31T12:05:44.174Z,12.90
2018-12-31T12:08:11.058Z,10.30
2018-12-31T12:10:38.104Z,14.63
2018-12-31T12:13:04.937Z,15.37
2018-12-31T12:15:31.681Z,12.77
2018-12-31T12:17:58.689Z,12.70
2018-12-31T12:20:25.441Z,14.90
2018-12-31T12:22:52.247Z,17.53
2018-12-31T12:25:18.946Z,14.53
2018-12-31T12:27:45.730Z,14.40
2018-12-31T12:30:12.549Z,8.20
2018-12-31T12:32:39.744Z,10.93
2018-12-31T12:35:06.446Z,10.83
2018-12-31T12:37:33.183Z,10.73
2018-12-31T12:40:00.266Z,9.10
2018-12-31T12:42:27.158Z,13.10
2018-12-31T12:44:53.914Z,13.53
2018-12-31T12:47:21.248Z,11.27
2018-12-31T12:49:49.188Z,10.00
2018-12-31T12:52:16.064Z,10.07
2018-12-31T12:54:42.899Z,12.23
2018-12-31T12:57:10.027Z,9.27
2018-12-31T12:59:36.754Z,8.97
2018-12-31T13:02:03.517Z,8.70
2018-12-31T13:04:30.629Z,9.43
2018-12-31T13:06:57.479Z,9.10
2018-12-31T13:09:26.197Z,8.00
2018-12-31T13:11:53.005Z,9.60
2018-12-31T13:14:22.663Z,10.70
2018-12-31T13:16:49.382Z,12.20
2018-12-31T13:19:16.155Z,8.70
2018-12-31T13:21:43.286Z,12.60
2018-12-31T13:24:10.139Z,13.77
2018-12-31T13:26:43.549Z,12.03
2018-12-31T13:29:05.831Z,8.57
2018-12-31T13:31:33.201Z,10.27
2018-12-31T13:33:59.971Z,13.73
2018-12-31T13:36:27.068Z,13.57
2018-12-31T13:38:53.818Z,12.30
2018-12-31T13:41:20.614Z,11.20
2018-12-31T13:43:47.339Z,11.00
2018-12-31T13:46:14.089Z,10.27
2018-12-31T13:48:41.215Z,10.13
2018-12-31T13:51:08.011Z,8.60
2018-12-31T13:53:34.885Z,8.80
2018-12-31T13:56:04.678Z,8.80
2018-12-31T13:58:31.414Z,9.73
2018-12-31T14:00:58.137Z,11.87
2018-12-31T14:03:24.993Z,9.93
2018-12-31T14:05:51.906Z,11.93
2018-12-31T14:08:18.640Z,14.17
2018-12-31T14:10:48.971Z,15.60
2018-12-31T14:13:15.709Z,9.33
2018-12-31T14:15:42.438Z,7.67
2018-12-31T14:18:09.177Z,8.50
2018-12-31T14:20:35.928Z,8.77
2018-12-31T14:23:02.945Z,7.77
2018-12-31T14:25:29.858Z,10.23
2018-12-31T14:27:58.228Z,13.13
2018-12-31T14:30:24.967Z,9.37
2018-12-31T14:32:52.016Z,8.60
2018-12-31T14:35:20.134Z,9.37
2018-12-31T14:37:48.718Z,9.63
2018-12-31T14:40:15.541Z,13.10
2018-12-31T14:42:42.282Z,10.77
2018-12-31T14:45:09.043Z,11.20
2018-12-31T14:47:35.775Z,8.80
2018-12-31T14:50:03.045Z,9.50
2018-12-31T14:52:30.228Z,9.47
2018-12-31T14:54:56.933Z,9.27
2018-12-31T14:57:24.058Z,12.23
2018-12-31T14:59:53.060Z,15.90
2018-12-31T15:02:19.769Z,13.60
2018-12-31T15:04:46.493Z,12.00
2018-12-31T15:07:13.421Z,17.97
2018-12-31T15:09:40.124Z,10.33
2018-12-31T15:12:09.625Z,16.13
2018-12-31T15:14:36.553Z,10.57
2018-12-31T15:17:04.642Z,14.00
2018-12-31T15:19:31.591Z,11.33
2018-12-31T15:21:58.733Z,11.27
2018-12-31T15:24:25.577Z,12.30
2018-12-31T15:26:52.614Z,10.93
2018-12-31T15:29:19.363Z,9.70
2018-12-31T15:31:46.110Z,13.17
2018-12-31T15:34:14.758Z,15.47
2018-12-31T15:36:41.754Z,16.43
2018-12-31T15:39:08.543Z,14.53
2018-12-31T15:41:35.240Z,14.77
2018-12-31T15:44:02.072Z,14.93
2018-12-31T15:46:30.107Z,11.43
2018-12-31T15:48:57.670Z,14.13
2018-12-31T15:51:24.648Z,17.90
2018-12-31T15:53:51.465Z,17.00
2018-12-31T15:56:19.959Z,20.03
2018-12-31T15:58:46.706Z,17.50
2018-12-31T16:01:13.970Z,17.30
2018-12-31T16:03:40.817Z,23.63
2018-12-31T16:06:07.946Z,20.20
2018-12-31T16:08:35.303Z,18.10
2018-12-31T16:11:03.269Z,13.70
2018-12-31T16:13:30.039Z,13.87
2018-12-31T16:15:56.873Z,15.20
2018-12-31T16:18:23.750Z,18.57
2018-12-31T16:20:50.659Z,16.27
2018-12-31T16:23:17.382Z,22.90
2018-12-31T16:25:44.369Z,21.07
2018-12-31T16:28:12.911Z,23.13
2018-12-31T16:30:41.509Z,20.67
2018-12-31T16:33:08.396Z,23.10
2018-12-31T16:35:35.069Z,24.87
2018-12-31T16:38:01.812Z,18.70
2018-12-31T16:40:28.514Z,18.63
2018-12-31T16:42:55.292Z,14.77
2018-12-31T16:45:22.032Z,15.93
2018-12-31T16:47:50.909Z,18.83
2018-12-31T16:50:21.457Z,18.67
2018-12-31T16:52:48.186Z,16.80
2018-12-31T16:55:15.088Z,12.20
2018-12-31T16:57:41.948Z,14.40
2018-12-31T17:00:11.200Z,12.70
2018-12-31T17:02:37.970Z,11.60
2018-12-31T17:05:05.007Z,11.97
2018-12-31T17:07:31.947Z,12.87
2018-12-31T17:09:58.770Z,13.50
2018-12-31T17:12:25.626Z,26.73
2018-12-31T17:14:52.432Z,28.33
2018-12-31T17:17:19.527Z,16.73
2018-12-31T17:19:46.734Z,16.37
2018-12-31T17:22:13.474Z,16.47
2018-12-31T17:24:40.183Z,17.57
2018-12-31T17:27:07.302Z,15.67
2018-12-31T17:29:34.664Z,14.90
2018-12-31T17:32:01.437Z,16.57
2018-12-31T17:34:28.136Z,14.80
2018-12-31T17:36:55.079Z,16.27
2018-12-31T17:39:21.892Z,18.43
2018-12-31T17:41:48.913Z,14.17
2018-12-31T17:44:16.463Z,15.03
2018-12-31T17:46:43.632Z,15.80
2018-12-31T17:49:10.758Z,13.90
2018-12-31T17:51:37.565Z,17.50
2018-12-31T17:54:04.287Z,15.10
2018-12-31T17:59:30.827Z,20.17
2018-12-31T18:01:57.847Z,18.40
2018-12-31T18:04:25.502Z,19.23
2018-12-31T18:06:53.696Z,21.37
2018-12-31T18:09:20.426Z,19.60
2018-12-31T18:11:49.429Z,16.83
2018-12-31T18:14:16.327Z,24.53
2018-12-31T18:16:43.043Z,25.93
2018-12-31T18:19:09.857Z,27.87
2018-12-31T18:21:37.312Z,27.37
2018-12-31T18:24:05.573Z,26.90
2018-12-31T18:26:32.530Z,23.10
2018-12-31T18:28:59.276Z,30.23
2018-12-31T18:31:27.015Z,24.07
2018-12-31T18:33:53.711Z,34.23
2018-12-31T18:36:21.013Z,29.53
2018-12-31T18:38:47.720Z,23.13
2018-12-31T18:41:14.416Z,45.03
2018-12-31T18:43:43.488Z,45.77
2018-12-31T18:46:10.276Z,43.00
2018-12-31T18:48:37.290Z,29.10
2018-12-31T18:51:04.943Z,25.27
2018-12-31T18:53:31.646Z,23.53
2018-12-31T18:55:58.397Z,25.87
2018-12-31T18:58:25.231Z,34.87
2018-12-31T19:00:51.923Z,36.53
2018-12-31T19:03:20.877Z,36.43
2018-12-31T19:05:47.617Z,30.70
2018-12-31T19:08:14.317Z,30.60
2018-12-31T19:10:41.053Z,32.00
2018-12-31T19:13:07.866Z,29.27
2018-12-31T19:15:34.608Z,24.20
2018-12-31T19:18:04.147Z,27.23
2018-12-31T19:20:32.760Z,25.60
2018-12-31T19:22:59.524Z,28.10
2018-12-31T19:25:26.268Z,25.00
2018-12-31T19:27:53.073Z,31.00
2018-12-31T19:30:19.770Z,30.70
2018-12-31T19:32:46.582Z,30.60
2018-12-31T19:35:13.501Z,27.43
2018-12-31T19:37:40.214Z,27.53
2018-12-31T19:40:06.951Z,29.80
2018-12-31T19:42:33.931Z,25.20
2018-12-31T19:45:02.650Z,23.60
2018-12-31T19:47:29.357Z,23.30
2018-12-31T19:49:56.402Z,25.97
2018-12-31T19:52:23.854Z,24.40
2018-12-31T19:54:50.656Z,23.07
2018-12-31T19:57:17.486Z,24.00
2018-12-31T19:59:44.177Z,28.17
2018-12-31T20:02:11.033Z,37.53
2018-12-31T20:04:37.762Z,30.63
2018-12-31T20:07:04.601Z,35.07
2018-12-31T20:09:31.368Z,38.17
2018-12-31T20:11:58.226Z,31.67
2018-12-31T20:14:25.087Z,40.70
2018-12-31T20:16:51.843Z,38.00
2018-12-31T20:19:18.971Z,40.10
2018-12-31T20:21:45.942Z,39.17
2018-12-31T20:24:14.638Z,38.77
2018-12-31T20:26:41.885Z,49.77
2018-12-31T20:29:08.865Z,38.97
2018-12-31T20:31:35.528Z,50.30
2018-12-31T20:34:03.034Z,41.90
2018-12-31T20:36:29.784Z,32.03
2018-12-31T20:38:57.950Z,36.63
2018-12-31T20:41:24.624Z,33.97
2018-12-31T20:43:51.732Z,33.30
2018-12-31T20:46:20.386Z,30.40
2018-12-31T20:48:47.384Z,28.70
2018-12-31T20:51:14.568Z,27.50
2018-12-31T20:53:41.522Z,27.87
2018-12-31T20:56:08.274Z,34.77
2018-12-31T20:58:35.782Z,32.60
2018-12-31T21:01:02.637Z,32.30
2018-12-31T21:03:29.350Z,24.70
2018-12-31T21:05:59.601Z,26.47
2018-12-31T21:08:26.644Z,28.43
2018-12-31T21:10:53.349Z,84.00
2018-12-31T21:13:20.077Z,27.77
2018-12-31T21:15:46.869Z,27.57
2018-12-31T21:18:13.558Z,24.90
2018-12-31T21:20:40.714Z,29.13
2018-12-31T21:23:07.396Z,29.53
2018-12-31T21:25:34.084Z,25.43
2018-12-31T21:28:00.809Z,26.50
2018-12-31T21:30:27.495Z,28.63
2018-12-31T21:32:54.261Z,27.33
2018-12-31T21:35:21.103Z,24.33
2018-12-31T21:37:47.891Z,31.90
2018-12-31T21:40:14.614Z,24.27
2018-12-31T21:42:41.565Z,24.30
2018-12-31T21:45:09.837Z,24.90
2018-12-31T21:47:37.979Z,29.27
2018-12-31T21:50:05.075Z,24.17
2018-12-31T21:52:33.983Z,24.43
2018-12-31T21:55:01.023Z,23.43
2018-12-31T21:57:30.473Z,23.27
2018-12-31T21:59:57.240Z,22.90
2018-12-31T22:02:23.914Z,22.00
2018-12-31T22:04:51.259Z,22.87
2018-12-31T22:07:17.993Z,21.97
2018-12-31T22:09:44.699Z,35.27
2018-12-31T22:12:11.396Z,41.67
2018-12-31T22:14:38.104Z,32.80
2018-12-31T22:17:04.960Z,29.63
2018-12-31T22:19:31.626Z,29.50
2018-12-31T22:21:58.338Z,30.80
2018-12-31T22:24:25.059Z,42.20
2018-12-31T22:26:51.839Z,38.10
2018-12-31T22:29:18.956Z,106.40
2018-12-31T22:31:46.046Z,44.30
2018-12-31T22:34:12.854Z,39.63
2018-12-31T22:36:40.108Z,56.23
2018-12-31T22:39:07.142Z,39.90
2018-12-31T22:41:33.890Z,36.87
2018-12-31T22:44:00.958Z,26.97
2018-12-31T22:46:28.479Z,29.77
2018-12-31T22:48:55.251Z,33.60
2018-12-31T22:51:22.285Z,21.27
2018-12-31T22:53:49.231Z,29.07
2018-12-31T22:56:16.299Z,33.70
2018-12-31T22:58:43.217Z,34.17
2018-12-31T23:01:10.190Z,50.77
2018-12-31T23:03:37.108Z,691.93
2018-12-31T23:06:05.511Z,774.53
2018-12-31T23:08:32.755Z,598.70
2018-12-31T23:11:00.200Z,384.17
2018-12-31T23:13:32.341Z,417.57
2018-12-31T23:15:59.316Z,519.30
2018-12-31T23:18:27.012Z,583.97
2018-12-31T23:20:55.401Z,615.50
2018-12-31T23:23:23.580Z,566.37
2018-12-31T23:25:50.625Z,566.00
2018-12-31T23:28:17.833Z,539.27
2018-12-31T23:30:44.968Z,529.73
2018-12-31T23:33:12.154Z,491.37
2018-12-31T23:35:38.995Z,453.17
2018-12-31T23:38:05.795Z,430.87
2018-12-31T23:40:32.506Z,412.87
2018-12-31T23:43:06.144Z,295.97
2018-12-31T23:45:27.911Z,277.83
2018-12-31T23:47:55.410Z,236.30
2018-12-31T23:50:22.241Z,219.03
2018-12-31T23:52:49.315Z,265.17
2018-12-31T23:55:16.056Z,263.30
2018-12-31T23:57:43.103Z,238.10
